sensor_id;sensor_type;location;lat;lon;timestamp;temperature;humidity
22383;DHT22;11359;45.802;13.530;2022-08-07T00:01:30;26.50;56.90
22383;DHT22;11359;45.802;13.530;2022-08-07T00:03:56;26.50;56.90
22383;DHT22;11359;45.802;13.530;2022-08-07T00:06:22;26.40;56.80
22383;DHT22;11359;45.802;13.530;2022-08-07T00:08:48;26.50;56.90
22383;DHT22;11359;45.802;13.530;2022-08-07T00:11:13;26.50;57.00
22383;DHT22;11359;45.802;13.530;2022-08-07T00:13:39;26.50;56.90
22383;DHT22;11359;45.802;13.530;2022-08-07T00:16:06;26.50;57.00
22383;DHT22;11359;45.802;13.530;2022-08-07T00:18:32;26.50;57.00
22383;DHT22;11359;45.802;13.530;2022-08-07T00:21:00;26.50;57.10
22383;DHT22;11359;45.802;13.530;2022-08-07T00:23:26;26.50;57.10
22383;DHT22;11359;45.802;13.530;2022-08-07T00:25:52;26.40;57.00
22383;DHT22;11359;45.802;13.530;2022-08-07T00:28:19;26.40;57.00
22383;DHT22;11359;45.802;13.530;2022-08-07T00:30:45;26.50;57.10
22383;DHT22;11359;45.802;13.530;2022-08-07T00:33:11;26.40;57.00
22383;DHT22;11359;45.802;13.530;2022-08-07T00:35:37;26.40;57.00
22383;DHT22;11359;45.802;13.530;2022-08-07T00:38:03;26.40;57.00
22383;DHT22;11359;45.802;13.530;2022-08-07T00:40:29;26.40;57.00
22383;DHT22;11359;45.802;13.530;2022-08-07T00:42:55;26.40;56.90
22383;DHT22;11359;45.802;13.530;2022-08-07T00:45:21;26.40;56.80
22383;DHT22;11359;45.802;13.530;2022-08-07T00:47:48;26.40;56.80
22383;DHT22;11359;45.802;13.530;2022-08-07T00:50:14;26.50;56.90
22383;DHT22;11359;45.802;13.530;2022-08-07T00:52:41;26.40;56.70
22383;DHT22;11359;45.802;13.530;2022-08-07T00:55:07;26.50;56.60
22383;DHT22;11359;45.802;13.530;2022-08-07T00:57:33;26.50;56.50
22383;DHT22;11359;45.802;13.530;2022-08-07T00:59:58;26.50;56.40
22383;DHT22;11359;45.802;13.530;2022-08-07T01:02:25;26.50;56.30
22383;DHT22;11359;45.802;13.530;2022-08-07T01:04:51;26.50;56.20
22383;DHT22;11359;45.802;13.530;2022-08-07T01:07:20;26.50;56.00
22383;DHT22;11359;45.802;13.530;2022-08-07T01:09:46;26.50;55.90
22383;DHT22;11359;45.802;13.530;2022-08-07T01:12:13;26.50;55.70
22383;DHT22;11359;45.802;13.530;2022-08-07T01:14:40;26.60;55.70
22383;DHT22;11359;45.802;13.530;2022-08-07T01:17:06;26.60;55.50
22383;DHT22;11359;45.802;13.530;2022-08-07T01:19:32;26.60;55.40
22383;DHT22;11359;45.802;13.530;2022-08-07T01:21:59;26.60;55.30
22383;DHT22;11359;45.802;13.530;2022-08-07T01:24:26;26.60;55.80
22383;DHT22;11359;45.802;13.530;2022-08-07T01:26:53;26.60;55.00
22383;DHT22;11359;45.802;13.530;2022-08-07T01:29:23;26.60;55.00
22383;DHT22;11359;45.802;13.530;2022-08-07T01:31:50;26.60;54.80
22383;DHT22;11359;45.802;13.530;2022-08-07T01:34:16;26.60;54.70
22383;DHT22;11359;45.802;13.530;2022-08-07T01:36:47;26.70;54.60
22383;DHT22;11359;45.802;13.530;2022-08-07T01:39:13;26.70;54.50
22383;DHT22;11359;45.802;13.530;2022-08-07T01:41:40;26.70;54.40
22383;DHT22;11359;45.802;13.530;2022-08-07T01:44:09;26.70;54.30
22383;DHT22;11359;45.802;13.530;2022-08-07T01:46:35;26.70;54.10
22383;DHT22;11359;45.802;13.530;2022-08-07T01:49:01;26.70;54.00
22383;DHT22;11359;45.802;13.530;2022-08-07T01:51:28;26.70;53.90
22383;DHT22;11359;45.802;13.530;2022-08-07T01:53:56;26.70;53.80
22383;DHT22;11359;45.802;13.530;2022-08-07T01:56:28;26.70;53.70
22383;DHT22;11359;45.802;13.530;2022-08-07T01:59:08;26.70;53.60
22383;DHT22;11359;45.802;13.530;2022-08-07T02:01:40;26.70;53.60
22383;DHT22;11359;45.802;13.530;2022-08-07T02:04:17;26.70;53.40
22383;DHT22;11359;45.802;13.530;2022-08-07T02:06:45;26.70;53.30
22383;DHT22;11359;45.802;13.530;2022-08-07T02:09:13;26.70;53.20
22383;DHT22;11359;45.802;13.530;2022-08-07T02:11:43;26.70;53.10
22383;DHT22;11359;45.802;13.530;2022-08-07T02:14:10;26.70;53.00
22383;DHT22;11359;45.802;13.530;2022-08-07T02:16:38;26.70;52.90
22383;DHT22;11359;45.802;13.530;2022-08-07T02:19:10;26.70;52.80
22383;DHT22;11359;45.802;13.530;2022-08-07T02:21:38;26.70;52.80
22383;DHT22;11359;45.802;13.530;2022-08-07T02:24:06;26.70;52.70
22383;DHT22;11359;45.802;13.530;2022-08-07T02:26:35;26.70;52.60
22383;DHT22;11359;45.802;13.530;2022-08-07T02:29:06;26.70;52.50
22383;DHT22;11359;45.802;13.530;2022-08-07T02:31:33;26.70;52.50
22383;DHT22;11359;45.802;13.530;2022-08-07T02:34:03;26.70;52.30
22383;DHT22;11359;45.802;13.530;2022-08-07T02:36:29;26.70;52.30
22383;DHT22;11359;45.802;13.530;2022-08-07T02:38:56;26.70;52.20
22383;DHT22;11359;45.802;13.530;2022-08-07T02:41:24;26.70;52.10
22383;DHT22;11359;45.802;13.530;2022-08-07T02:43:51;26.70;52.10
22383;DHT22;11359;45.802;13.530;2022-08-07T02:46:21;26.60;52.00
22383;DHT22;11359;45.802;13.530;2022-08-07T02:48:47;26.60;51.90
22383;DHT22;11359;45.802;13.530;2022-08-07T02:51:17;26.60;51.90
22383;DHT22;11359;45.802;13.530;2022-08-07T02:53:44;26.60;51.90
22383;DHT22;11359;45.802;13.530;2022-08-07T02:56:17;26.60;51.90
22383;DHT22;11359;45.802;13.530;2022-08-07T02:58:44;26.50;51.70
22383;DHT22;11359;45.802;13.530;2022-08-07T03:01:10;26.50;51.70
22383;DHT22;11359;45.802;13.530;2022-08-07T03:03:37;26.50;51.70
22383;DHT22;11359;45.802;13.530;2022-08-07T03:06:04;26.50;51.70
22383;DHT22;11359;45.802;13.530;2022-08-07T03:08:30;26.50;51.70
22383;DHT22;11359;45.802;13.530;2022-08-07T03:10:56;26.50;51.70
22383;DHT22;11359;45.802;13.530;2022-08-07T03:13:22;26.50;51.70
22383;DHT22;11359;45.802;13.530;2022-08-07T03:15:49;26.50;51.70
22383;DHT22;11359;45.802;13.530;2022-08-07T03:18:16;26.50;51.70
22383;DHT22;11359;45.802;13.530;2022-08-07T03:20:42;26.50;51.70
22383;DHT22;11359;45.802;13.530;2022-08-07T03:23:08;26.50;51.70
22383;DHT22;11359;45.802;13.530;2022-08-07T03:25:38;26.50;51.60
22383;DHT22;11359;45.802;13.530;2022-08-07T03:28:04;26.50;51.60
22383;DHT22;11359;45.802;13.530;2022-08-07T03:30:32;26.50;51.60
22383;DHT22;11359;45.802;13.530;2022-08-07T03:32:59;26.40;51.50
22383;DHT22;11359;45.802;13.530;2022-08-07T03:35:28;26.40;51.50
22383;DHT22;11359;45.802;13.530;2022-08-07T03:38:00;26.50;51.60
22383;DHT22;11359;45.802;13.530;2022-08-07T03:40:27;26.50;51.50
22383;DHT22;11359;45.802;13.530;2022-08-07T03:42:54;26.50;51.50
22383;DHT22;11359;45.802;13.530;2022-08-07T03:45:25;26.50;51.50
22383;DHT22;11359;45.802;13.530;2022-08-07T03:47:52;26.50;51.60
22383;DHT22;11359;45.802;13.530;2022-08-07T03:50:19;26.50;51.50
22383;DHT22;11359;45.802;13.530;2022-08-07T03:52:46;26.40;51.40
22383;DHT22;11359;45.802;13.530;2022-08-07T03:55:12;26.50;51.40
22383;DHT22;11359;45.802;13.530;2022-08-07T03:57:38;26.40;51.30
22383;DHT22;11359;45.802;13.530;2022-08-07T04:00:06;26.50;51.40
22383;DHT22;11359;45.802;13.530;2022-08-07T04:02:33;26.50;51.30
22383;DHT22;11359;45.802;13.530;2022-08-07T04:04:59;26.40;51.30
22383;DHT22;11359;45.802;13.530;2022-08-07T04:07:25;26.40;51.30
22383;DHT22;11359;45.802;13.530;2022-08-07T04:09:51;26.40;51.30
22383;DHT22;11359;45.802;13.530;2022-08-07T04:12:17;26.40;51.30
22383;DHT22;11359;45.802;13.530;2022-08-07T04:14:44;26.40;51.40
22383;DHT22;11359;45.802;13.530;2022-08-07T04:17:11;26.40;51.90
22383;DHT22;11359;45.802;13.530;2022-08-07T04:19:40;26.40;51.30
22383;DHT22;11359;45.802;13.530;2022-08-07T04:22:06;26.40;51.30
22383;DHT22;11359;45.802;13.530;2022-08-07T04:24:33;26.40;51.30
22383;DHT22;11359;45.802;13.530;2022-08-07T04:26:59;26.40;51.20
22383;DHT22;11359;45.802;13.530;2022-08-07T04:29:27;26.40;51.20
22383;DHT22;11359;45.802;13.530;2022-08-07T04:31:54;26.40;51.20
22383;DHT22;11359;45.802;13.530;2022-08-07T04:34:21;26.50;51.30
22383;DHT22;11359;45.802;13.530;2022-08-07T04:36:47;26.40;51.20
22383;DHT22;11359;45.802;13.530;2022-08-07T04:39:13;26.50;51.30
22383;DHT22;11359;45.802;13.530;2022-08-07T04:41:39;26.40;51.10
22383;DHT22;11359;45.802;13.530;2022-08-07T04:44:05;26.40;51.20
22383;DHT22;11359;45.802;13.530;2022-08-07T04:46:35;26.40;51.20
22383;DHT22;11359;45.802;13.530;2022-08-07T04:49:10;26.40;51.20
22383;DHT22;11359;45.802;13.530;2022-08-07T04:52:04;26.50;51.20
22383;DHT22;11359;45.802;13.530;2022-08-07T05:02:38;26.50;51.00
22383;DHT22;11359;45.802;13.530;2022-08-07T05:05:29;26.50;51.00
22383;DHT22;11359;45.802;13.530;2022-08-07T05:08:07;26.50;51.10
22383;DHT22;11359;45.802;13.530;2022-08-07T05:10:44;26.50;51.10
22383;DHT22;11359;45.802;13.530;2022-08-07T05:13:24;26.50;51.10
22383;DHT22;11359;45.802;13.530;2022-08-07T05:15:52;26.50;51.10
22383;DHT22;11359;45.802;13.530;2022-08-07T05:18:22;26.50;51.10
22383;DHT22;11359;45.802;13.530;2022-08-07T05:20:52;26.50;51.10
22383;DHT22;11359;45.802;13.530;2022-08-07T05:23:31;26.50;51.10
22383;DHT22;11359;45.802;13.530;2022-08-07T05:26:00;26.50;51.00
22383;DHT22;11359;45.802;13.530;2022-08-07T05:28:26;26.50;50.90
22383;DHT22;11359;45.802;13.530;2022-08-07T05:30:53;26.60;51.00
22383;DHT22;11359;45.802;13.530;2022-08-07T05:33:21;26.60;51.00
22383;DHT22;11359;45.802;13.530;2022-08-07T05:35:49;26.60;50.90
22383;DHT22;11359;45.802;13.530;2022-08-07T05:38:16;26.60;50.80
22383;DHT22;11359;45.802;13.530;2022-08-07T05:40:42;26.60;50.70
22383;DHT22;11359;45.802;13.530;2022-08-07T05:43:08;26.60;50.60
22383;DHT22;11359;45.802;13.530;2022-08-07T05:45:34;26.60;50.60
22383;DHT22;11359;45.802;13.530;2022-08-07T05:48:02;26.60;50.60
22383;DHT22;11359;45.802;13.530;2022-08-07T05:50:30;26.60;50.60
22383;DHT22;11359;45.802;13.530;2022-08-07T05:52:59;26.70;50.60
22383;DHT22;11359;45.802;13.530;2022-08-07T05:55:25;26.70;50.60
22383;DHT22;11359;45.802;13.530;2022-08-07T05:57:52;26.70;50.60
22383;DHT22;11359;45.802;13.530;2022-08-07T06:00:18;26.70;50.50
22383;DHT22;11359;45.802;13.530;2022-08-07T06:02:47;26.70;50.40
22383;DHT22;11359;45.802;13.530;2022-08-07T06:05:14;26.70;50.30
22383;DHT22;11359;45.802;13.530;2022-08-07T06:07:41;26.80;50.30
22383;DHT22;11359;45.802;13.530;2022-08-07T06:10:09;26.70;50.20
22383;DHT22;11359;45.802;13.530;2022-08-07T06:12:35;26.70;50.20
22383;DHT22;11359;45.802;13.530;2022-08-07T06:15:02;26.80;50.20
22383;DHT22;11359;45.802;13.530;2022-08-07T06:19:53;26.80;49.50
22383;DHT22;11359;45.802;13.530;2022-08-07T06:22:21;26.80;50.10
22383;DHT22;11359;45.802;13.530;2022-08-07T06:24:47;26.80;50.10
22383;DHT22;11359;45.802;13.530;2022-08-07T06:27:22;26.80;50.00
22383;DHT22;11359;45.802;13.530;2022-08-07T06:29:48;26.80;50.00
22383;DHT22;11359;45.802;13.530;2022-08-07T06:32:13;26.80;49.90
22383;DHT22;11359;45.802;13.530;2022-08-07T06:34:39;26.80;50.00
22383;DHT22;11359;45.802;13.530;2022-08-07T06:37:05;26.90;49.90
22383;DHT22;11359;45.802;13.530;2022-08-07T06:39:31;26.90;49.90
22383;DHT22;11359;45.802;13.530;2022-08-07T06:42:13;26.90;49.90
22383;DHT22;11359;45.802;13.530;2022-08-07T06:44:41;26.90;49.80
22383;DHT22;11359;45.802;13.530;2022-08-07T06:47:08;26.90;49.80
22383;DHT22;11359;45.802;13.530;2022-08-07T06:49:34;26.90;49.70
22383;DHT22;11359;45.802;13.530;2022-08-07T06:52:01;27.00;49.70
22383;DHT22;11359;45.802;13.530;2022-08-07T06:54:28;27.00;49.70
22383;DHT22;11359;45.802;13.530;2022-08-07T06:56:56;27.00;49.60
22383;DHT22;11359;45.802;13.530;2022-08-07T06:59:26;27.00;49.50
22383;DHT22;11359;45.802;13.530;2022-08-07T07:01:52;27.00;49.40
22383;DHT22;11359;45.802;13.530;2022-08-07T07:04:19;27.00;49.30
22383;DHT22;11359;45.802;13.530;2022-08-07T07:06:45;27.00;49.30
22383;DHT22;11359;45.802;13.530;2022-08-07T07:09:25;27.10;49.30
22383;DHT22;11359;45.802;13.530;2022-08-07T07:14:24;27.10;49.10
22383;DHT22;11359;45.802;13.530;2022-08-07T07:16:52;27.10;49.10
22383;DHT22;11359;45.802;13.530;2022-08-07T07:19:28;27.10;49.10
22383;DHT22;11359;45.802;13.530;2022-08-07T07:21:55;27.10;49.00
22383;DHT22;11359;45.802;13.530;2022-08-07T07:24:20;27.10;48.90
22383;DHT22;11359;45.802;13.530;2022-08-07T07:26:50;27.10;48.90
22383;DHT22;11359;45.802;13.530;2022-08-07T07:29:21;27.20;48.90
22383;DHT22;11359;45.802;13.530;2022-08-07T07:31:49;27.20;48.80
22383;DHT22;11359;45.802;13.530;2022-08-07T07:34:20;27.20;48.70
22383;DHT22;11359;45.802;13.530;2022-08-07T07:36:48;27.20;48.70
22383;DHT22;11359;45.802;13.530;2022-08-07T07:39:15;27.30;48.70
22383;DHT22;11359;45.802;13.530;2022-08-07T07:41:44;27.30;48.60
22383;DHT22;11359;45.802;13.530;2022-08-07T07:44:13;27.40;48.60
22383;DHT22;11359;45.802;13.530;2022-08-07T07:46:41;27.40;48.50
22383;DHT22;11359;45.802;13.530;2022-08-07T07:49:08;27.40;48.40
22383;DHT22;11359;45.802;13.530;2022-08-07T07:51:36;27.40;48.40
22383;DHT22;11359;45.802;13.530;2022-08-07T07:54:04;27.50;48.40
22383;DHT22;11359;45.802;13.530;2022-08-07T07:56:32;27.50;48.20
22383;DHT22;11359;45.802;13.530;2022-08-07T07:59:02;27.50;48.10
22383;DHT22;11359;45.802;13.530;2022-08-07T08:01:30;27.50;48.00
22383;DHT22;11359;45.802;13.530;2022-08-07T08:04:00;27.50;47.90
22383;DHT22;11359;45.802;13.530;2022-08-07T08:06:27;27.50;47.90
22383;DHT22;11359;45.802;13.530;2022-08-07T08:08:54;27.50;47.80
22383;DHT22;11359;45.802;13.530;2022-08-07T08:11:20;27.50;47.80
22383;DHT22;11359;45.802;13.530;2022-08-07T08:13:47;27.60;47.80
22383;DHT22;11359;45.802;13.530;2022-08-07T08:16:17;27.60;47.70
22383;DHT22;11359;45.802;13.530;2022-08-07T08:18:44;27.60;47.60
22383;DHT22;11359;45.802;13.530;2022-08-07T08:21:14;27.60;47.60
22383;DHT22;11359;45.802;13.530;2022-08-07T08:24:03;27.70;47.60
22383;DHT22;11359;45.802;13.530;2022-08-07T08:26:52;27.70;47.50
22383;DHT22;11359;45.802;13.530;2022-08-07T08:32:10;27.70;47.40
22383;DHT22;11359;45.802;13.530;2022-08-07T08:34:38;27.80;47.30
22383;DHT22;11359;45.802;13.530;2022-08-07T08:37:07;27.80;47.30
22383;DHT22;11359;45.802;13.530;2022-08-07T08:39:35;27.80;47.30
22383;DHT22;11359;45.802;13.530;2022-08-07T08:42:05;27.90;47.20
22383;DHT22;11359;45.802;13.530;2022-08-07T08:44:51;27.90;47.20
22383;DHT22;11359;45.802;13.530;2022-08-07T08:50:21;28.00;47.20
22383;DHT22;11359;45.802;13.530;2022-08-07T08:55:47;28.10;47.10
22383;DHT22;11359;45.802;13.530;2022-08-07T09:00:59;28.20;47.00
22383;DHT22;11359;45.802;13.530;2022-08-07T09:03:48;28.20;46.90
22383;DHT22;11359;45.802;13.530;2022-08-07T09:06:32;28.20;46.80
22383;DHT22;11359;45.802;13.530;2022-08-07T09:11:45;28.30;46.70
22383;DHT22;11359;45.802;13.530;2022-08-07T09:14:30;28.40;46.70
22383;DHT22;11359;45.802;13.530;2022-08-07T09:20:11;28.40;46.70
22383;DHT22;11359;45.802;13.530;2022-08-07T09:28:04;28.50;46.50
22383;DHT22;11359;45.802;13.530;2022-08-07T09:30:57;28.50;46.50
22383;DHT22;11359;45.802;13.530;2022-08-07T09:36:19;28.60;46.30
22383;DHT22;11359;45.802;13.530;2022-08-07T09:44:51;28.70;46.00
22383;DHT22;11359;45.802;13.530;2022-08-07T09:50:13;28.70;45.80
22383;DHT22;11359;45.802;13.530;2022-08-07T09:52:56;28.80;45.80
22383;DHT22;11359;45.802;13.530;2022-08-07T10:08:01;28.90;45.30
22383;DHT22;11359;45.802;13.530;2022-08-07T10:10:13;28.90;45.30
22383;DHT22;11359;45.802;13.530;2022-08-07T10:15:50;29.00;45.20
22383;DHT22;11359;45.802;13.530;2022-08-07T10:24:22;29.10;45.00
22383;DHT22;11359;45.802;13.530;2022-08-07T10:36:12;29.20;44.60
22383;DHT22;11359;45.802;13.530;2022-08-07T10:41:38;29.30;44.50
22383;DHT22;11359;45.802;13.530;2022-08-07T10:44:31;29.30;44.50
22383;DHT22;11359;45.802;13.530;2022-08-07T10:50:12;29.30;44.50
22383;DHT22;11359;45.802;13.530;2022-08-07T10:55:32;29.40;44.30
22383;DHT22;11359;45.802;13.530;2022-08-07T11:00:44;29.50;44.10
22383;DHT22;11359;45.802;13.530;2022-08-07T11:03:22;29.50;44.10
22383;DHT22;11359;45.802;13.530;2022-08-07T11:06:20;29.60;44.00
22383;DHT22;11359;45.802;13.530;2022-08-07T11:08:59;29.60;43.90
22383;DHT22;11359;45.802;13.530;2022-08-07T11:11:34;29.70;43.80
22383;DHT22;11359;45.802;13.530;2022-08-07T11:14:16;29.70;43.60
22383;DHT22;11359;45.802;13.530;2022-08-07T11:16:49;29.80;43.60
22383;DHT22;11359;45.802;13.530;2022-08-07T11:19:44;29.70;43.40
22383;DHT22;11359;45.802;13.530;2022-08-07T11:30:18;29.90;43.30
22383;DHT22;11359;45.802;13.530;2022-08-07T11:35:42;30.00;43.10
22383;DHT22;11359;45.802;13.530;2022-08-07T11:38:25;30.00;43.00
22383;DHT22;11359;45.802;13.530;2022-08-07T11:43:33;30.00;42.90
22383;DHT22;11359;45.802;13.530;2022-08-07T11:54:37;30.10;42.60
22383;DHT22;11359;45.802;13.530;2022-08-07T12:05:25;30.30;42.40
22383;DHT22;11359;45.802;13.530;2022-08-07T12:08:06;30.30;42.30
22383;DHT22;11359;45.802;13.530;2022-08-07T12:10:47;30.30;42.30
22383;DHT22;11359;45.802;13.530;2022-08-07T12:13:22;30.40;42.30
22383;DHT22;11359;45.802;13.530;2022-08-07T12:15:54;30.40;42.20
22383;DHT22;11359;45.802;13.530;2022-08-07T12:18:35;30.40;42.20
22383;DHT22;11359;45.802;13.530;2022-08-07T12:21:43;30.50;42.30
22383;DHT22;11359;45.802;13.530;2022-08-07T12:27:41;30.60;42.10
22383;DHT22;11359;45.802;13.530;2022-08-07T12:30:09;30.60;42.10
22383;DHT22;11359;45.802;13.530;2022-08-07T12:33:11;30.70;42.10
22383;DHT22;11359;45.802;13.530;2022-08-07T12:35:44;30.80;42.20
22383;DHT22;11359;45.802;13.530;2022-08-07T12:38:12;30.80;42.10
22383;DHT22;11359;45.802;13.530;2022-08-07T12:40:41;30.80;42.00
22383;DHT22;11359;45.802;13.530;2022-08-07T12:43:08;30.90;42.00
22383;DHT22;11359;45.802;13.530;2022-08-07T12:51:10;31.10;41.90
22383;DHT22;11359;45.802;13.530;2022-08-07T12:53:55;31.20;41.90
22383;DHT22;11359;45.802;13.530;2022-08-07T12:58:54;31.30;41.70
22383;DHT22;11359;45.802;13.530;2022-08-07T13:01:52;31.30;41.70
22383;DHT22;11359;45.802;13.530;2022-08-07T13:04:58;31.40;41.70
22383;DHT22;11359;45.802;13.530;2022-08-07T13:08:05;31.50;41.80
22383;DHT22;11359;45.802;13.530;2022-08-07T13:16:14;31.80;42.00
22383;DHT22;11359;45.802;13.530;2022-08-07T13:21:16;32.10;42.20
22383;DHT22;11359;45.802;13.530;2022-08-07T13:26:33;32.50;42.20
22383;DHT22;11359;45.802;13.530;2022-08-07T13:29:23;32.70;42.30
22383;DHT22;11359;45.802;13.530;2022-08-07T13:32:02;33.10;42.30
22383;DHT22;11359;45.802;13.530;2022-08-07T13:34:36;33.40;42.10
22383;DHT22;11359;45.802;13.530;2022-08-07T13:39:48;34.00;41.70
22383;DHT22;11359;45.802;13.530;2022-08-07T13:42:16;34.30;41.50
22383;DHT22;11359;45.802;13.530;2022-08-07T13:44:43;34.60;41.10
22383;DHT22;11359;45.802;13.530;2022-08-07T13:47:10;34.90;40.90
22383;DHT22;11359;45.802;13.530;2022-08-07T13:49:43;35.20;40.60
22383;DHT22;11359;45.802;13.530;2022-08-07T13:52:10;35.40;40.20
22383;DHT22;11359;45.802;13.530;2022-08-07T13:54:39;35.70;39.70
22383;DHT22;11359;45.802;13.530;2022-08-07T13:57:10;35.90;39.30
22383;DHT22;11359;45.802;13.530;2022-08-07T13:59:45;36.20;39.00
22383;DHT22;11359;45.802;13.530;2022-08-07T14:02:21;36.40;38.70
22383;DHT22;11359;45.802;13.530;2022-08-07T14:04:50;36.60;38.30
22383;DHT22;11359;45.802;13.530;2022-08-07T14:07:20;36.80;38.00
22383;DHT22;11359;45.802;13.530;2022-08-07T14:09:51;37.00;37.80
22383;DHT22;11359;45.802;13.530;2022-08-07T14:12:25;37.10;37.50
22383;DHT22;11359;45.802;13.530;2022-08-07T14:15:00;37.30;37.40
22383;DHT22;11359;45.802;13.530;2022-08-07T14:17:29;37.60;37.30
22383;DHT22;11359;45.802;13.530;2022-08-07T14:19:59;37.70;37.00
22383;DHT22;11359;45.802;13.530;2022-08-07T14:22:30;37.90;36.60
22383;DHT22;11359;45.802;13.530;2022-08-07T14:25:00;38.10;36.10
22383;DHT22;11359;45.802;13.530;2022-08-07T14:27:38;38.30;36.00
22383;DHT22;11359;45.802;13.530;2022-08-07T14:30:10;38.50;35.60
22383;DHT22;11359;45.802;13.530;2022-08-07T14:32:47;38.70;35.40
22383;DHT22;11359;45.802;13.530;2022-08-07T14:35:24;38.80;34.90
22383;DHT22;11359;45.802;13.530;2022-08-07T14:37:52;39.10;34.70
22383;DHT22;11359;45.802;13.530;2022-08-07T14:40:21;39.20;34.30
22383;DHT22;11359;45.802;13.530;2022-08-07T14:43:19;39.40;34.00
22383;DHT22;11359;45.802;13.530;2022-08-07T14:45:49;39.60;33.70
22383;DHT22;11359;45.802;13.530;2022-08-07T14:48:19;39.70;33.50
22383;DHT22;11359;45.802;13.530;2022-08-07T14:50:49;39.80;33.00
22383;DHT22;11359;45.802;13.530;2022-08-07T14:53:15;39.90;32.70
22383;DHT22;11359;45.802;13.530;2022-08-07T14:55:42;40.20;32.50
22383;DHT22;11359;45.802;13.530;2022-08-07T14:58:14;40.20;32.10
22383;DHT22;11359;45.802;13.530;2022-08-07T15:00:43;40.30;31.90
22383;DHT22;11359;45.802;13.530;2022-08-07T15:03:12;40.50;31.70
22383;DHT22;11359;45.802;13.530;2022-08-07T15:05:40;40.60;31.50
22383;DHT22;11359;45.802;13.530;2022-08-07T15:08:08;40.80;31.20
22383;DHT22;11359;45.802;13.530;2022-08-07T15:10:39;40.90;30.90
22383;DHT22;11359;45.802;13.530;2022-08-07T15:13:16;41.00;30.70
22383;DHT22;11359;45.802;13.530;2022-08-07T15:15:50;41.10;30.50
22383;DHT22;11359;45.802;13.530;2022-08-07T15:18:21;41.20;30.20
22383;DHT22;11359;45.802;13.530;2022-08-07T15:20:49;41.30;30.00
22383;DHT22;11359;45.802;13.530;2022-08-07T15:23:29;41.50;30.50
22383;DHT22;11359;45.802;13.530;2022-08-07T15:25:58;41.60;29.60
22383;DHT22;11359;45.802;13.530;2022-08-07T15:28:27;41.70;29.40
22383;DHT22;11359;45.802;13.530;2022-08-07T15:31:00;41.70;29.30
22383;DHT22;11359;45.802;13.530;2022-08-07T15:33:27;41.90;29.00
22383;DHT22;11359;45.802;13.530;2022-08-07T15:35:55;41.90;28.90
22383;DHT22;11359;45.802;13.530;2022-08-07T15:38:29;41.90;28.70
22383;DHT22;11359;45.802;13.530;2022-08-07T15:40:56;42.00;28.80
22383;DHT22;11359;45.802;13.530;2022-08-07T15:43:25;42.10;28.70
22383;DHT22;11359;45.802;13.530;2022-08-07T15:45:53;42.10;28.60
22383;DHT22;11359;45.802;13.530;2022-08-07T15:50:52;42.40;28.40
22383;DHT22;11359;45.802;13.530;2022-08-07T15:53:27;42.40;28.00
22383;DHT22;11359;45.802;13.530;2022-08-07T15:55:59;42.40;27.70
22383;DHT22;11359;45.802;13.530;2022-08-07T16:01:39;42.10;26.90
22383;DHT22;11359;45.802;13.530;2022-08-07T16:04:05;41.80;26.80
22383;DHT22;11359;45.802;13.530;2022-08-07T16:06:34;41.50;26.70
22383;DHT22;11359;45.802;13.530;2022-08-07T16:09:25;41.20;26.60
22383;DHT22;11359;45.802;13.530;2022-08-07T16:17:57;40.00;26.90
22383;DHT22;11359;45.802;13.530;2022-08-07T16:20:44;39.70;27.10
22383;DHT22;11359;45.802;13.530;2022-08-07T16:31:26;38.60;27.70
22383;DHT22;11359;45.802;13.530;2022-08-07T16:33:59;38.40;27.80
22383;DHT22;11359;45.802;13.530;2022-08-07T16:37:02;38.20;27.90
22383;DHT22;11359;45.802;13.530;2022-08-07T16:42:52;37.80;28.00
22383;DHT22;11359;45.802;13.530;2022-08-07T16:50:48;37.20;28.40
22383;DHT22;11359;45.802;13.530;2022-08-07T16:55:52;36.90;28.60
22383;DHT22;11359;45.802;13.530;2022-08-07T17:09:46;36.30;29.30
22383;DHT22;11359;45.802;13.530;2022-08-07T17:12:19;36.20;29.30
22383;DHT22;11359;45.802;13.530;2022-08-07T17:15:19;36.10;29.40
22383;DHT22;11359;45.802;13.530;2022-08-07T17:17:51;36.00;29.50
22383;DHT22;11359;45.802;13.530;2022-08-07T17:23:15;35.80;29.60
22383;DHT22;11359;45.802;13.530;2022-08-07T17:28:42;35.70;29.70
22383;DHT22;11359;45.802;13.530;2022-08-07T17:33:58;35.50;29.70
22383;DHT22;11359;45.802;13.530;2022-08-07T17:36:30;35.40;29.70
22383;DHT22;11359;45.802;13.530;2022-08-07T17:39:03;35.30;29.70
22383;DHT22;11359;45.802;13.530;2022-08-07T17:44:10;35.10;29.80
22383;DHT22;11359;45.802;13.530;2022-08-07T17:46:49;35.00;29.90
22383;DHT22;11359;45.802;13.530;2022-08-07T17:49:23;34.90;30.00
22383;DHT22;11359;45.802;13.530;2022-08-07T17:51:55;34.70;30.70
22383;DHT22;11359;45.802;13.530;2022-08-07T17:57:18;34.50;30.20
22383;DHT22;11359;45.802;13.530;2022-08-07T17:59:47;34.40;30.40
22383;DHT22;11359;45.802;13.530;2022-08-07T18:10:47;33.90;30.60
22383;DHT22;11359;45.802;13.530;2022-08-07T18:21:53;33.40;31.40
22383;DHT22;11359;45.802;13.530;2022-08-07T18:24:36;33.30;31.50
22383;DHT22;11359;45.802;13.530;2022-08-07T18:30:06;33.10;31.70
22383;DHT22;11359;45.802;13.530;2022-08-07T18:38:25;32.80;32.10
22383;DHT22;11359;45.802;13.530;2022-08-07T18:41:21;32.80;32.30
22383;DHT22;11359;45.802;13.530;2022-08-07T18:46:55;32.60;32.60
22383;DHT22;11359;45.802;13.530;2022-08-07T18:52:20;32.40;32.70
22383;DHT22;11359;45.802;13.530;2022-08-07T19:05:20;32.10;33.20
22383;DHT22;11359;45.802;13.530;2022-08-07T19:10:27;32.00;33.40
22383;DHT22;11359;45.802;13.530;2022-08-07T19:13:06;31.90;33.40
22383;DHT22;11359;45.802;13.530;2022-08-07T19:18:23;31.80;33.60
22383;DHT22;11359;45.802;13.530;2022-08-07T19:20:54;31.70;33.70
22383;DHT22;11359;45.802;13.530;2022-08-07T19:23:30;31.70;33.90
22383;DHT22;11359;45.802;13.530;2022-08-07T19:25:56;31.60;33.90
22383;DHT22;11359;45.802;13.530;2022-08-07T19:28:26;31.60;34.00
22383;DHT22;11359;45.802;13.530;2022-08-07T19:30:56;31.60;34.20
22383;DHT22;11359;45.802;13.530;2022-08-07T19:33:25;31.50;34.30
22383;DHT22;11359;45.802;13.530;2022-08-07T19:35:55;31.40;34.30
22383;DHT22;11359;45.802;13.530;2022-08-07T19:38:26;31.40;34.40
22383;DHT22;11359;45.802;13.530;2022-08-07T19:40:57;31.40;34.60
22383;DHT22;11359;45.802;13.530;2022-08-07T19:43:29;31.30;34.60
22383;DHT22;11359;45.802;13.530;2022-08-07T19:45:58;31.30;34.70
22383;DHT22;11359;45.802;13.530;2022-08-07T19:48:37;31.20;34.70